createdAt,value
2022-10-27T00:00:40.826Z,15.74
2022-10-27T00:03:14.966Z,15.77
2022-10-27T00:05:45.732Z,15.79
2022-10-27T00:08:17.703Z,15.80
2022-10-27T00:10:45.891Z,15.82
2022-10-27T00:13:14.066Z,15.84
2022-10-27T00:15:42.155Z,15.84
2022-10-27T00:18:11.365Z,15.87
2022-10-27T00:20:39.400Z,15.90
2022-10-27T00:23:08.418Z,15.91
2022-10-27T00:25:36.093Z,15.93
2022-10-27T00:28:03.728Z,15.93
2022-10-27T00:30:31.450Z,15.94
2022-10-27T00:32:59.074Z,15.96
2022-10-27T00:35:26.707Z,15.97
2022-10-27T00:37:54.432Z,16.00
2022-10-27T00:40:23.518Z,16.02
2022-10-27T00:42:51.150Z,16.02
2022-10-27T00:45:18.791Z,16.00
2022-10-27T00:47:46.915Z,16.01
2022-10-27T00:50:18.192Z,16.00
2022-10-27T00:52:48.211Z,15.97
2022-10-27T00:55:19.492Z,15.95
2022-10-27T00:57:52.934Z,15.90
2022-10-27T01:00:21.108Z,15.84
2022-10-27T01:02:49.747Z,15.80
2022-10-27T01:05:20.807Z,15.77
2022-10-27T01:07:50.210Z,15.72
2022-10-27T01:10:19.294Z,15.66
2022-10-27T01:12:48.995Z,15.61
2022-10-27T01:15:17.955Z,15.56
2022-10-27T01:17:54.566Z,15.52
2022-10-27T01:21:07.054Z,15.48
2022-10-27T01:23:49.462Z,15.42
2022-10-27T01:26:46.916Z,15.37
2022-10-27T01:29:38.896Z,15.32
2022-10-27T01:32:17.469Z,15.26
2022-10-27T01:34:48.962Z,15.22
2022-10-27T01:37:21.397Z,15.16
2022-10-27T01:39:52.158Z,15.13
2022-10-27T01:42:26.654Z,15.10
2022-10-27T01:44:58.280Z,15.06
2022-10-27T01:47:28.417Z,15.04
2022-10-27T01:49:56.076Z,14.99
2022-10-27T01:52:43.119Z,14.97
2022-10-27T01:55:16.721Z,14.92
2022-10-27T01:57:57.470Z,14.88
2022-10-27T02:00:25.168Z,14.84
2022-10-27T02:03:01.565Z,14.81
2022-10-27T02:05:41.053Z,14.79
2022-10-27T02:08:15.201Z,14.76
2022-10-27T02:10:48.894Z,14.73
2022-10-27T02:13:17.032Z,14.70
2022-10-27T02:15:48.179Z,14.66
2022-10-27T02:18:22.448Z,14.63
2022-10-27T02:20:54.872Z,14.59
2022-10-27T02:23:23.294Z,14.56
2022-10-27T02:25:57.217Z,14.52
2022-10-27T02:28:30.779Z,14.52
2022-10-27T02:31:00.942Z,14.53
2022-10-27T02:33:30.086Z,14.51
2022-10-27T02:35:58.114Z,14.48
2022-10-27T02:38:25.906Z,14.46
2022-10-27T02:40:53.834Z,14.43
2022-10-27T02:43:21.463Z,14.41
2022-10-27T02:45:49.087Z,14.36
2022-10-27T02:48:16.757Z,14.33
2022-10-27T02:50:45.827Z,14.33
2022-10-27T02:53:13.452Z,14.28
2022-10-27T02:55:41.082Z,14.23
2022-10-27T02:58:08.718Z,14.23
2022-10-27T03:00:36.365Z,14.23
2022-10-27T03:03:04.097Z,14.20
2022-10-27T03:05:31.755Z,14.19
2022-10-27T03:08:01.084Z,14.15
2022-10-27T03:10:28.767Z,14.11
2022-10-27T03:12:56.392Z,14.10
2022-10-27T03:15:24.051Z,14.07
2022-10-27T03:17:51.673Z,14.08
2022-10-27T03:20:19.286Z,14.05
2022-10-27T03:22:47.005Z,14.07
2022-10-27T03:25:16.050Z,14.04
2022-10-27T03:27:45.130Z,14.05
2022-10-27T03:30:14.642Z,14.05
2022-10-27T03:32:46.908Z,14.04
2022-10-27T03:35:14.678Z,14.03
2022-10-27T03:37:42.579Z,14.01
2022-10-27T03:40:11.450Z,13.99
2022-10-27T03:42:43.432Z,13.97
2022-10-27T03:45:12.357Z,13.91
2022-10-27T03:47:40.069Z,13.90
2022-10-27T03:50:08.610Z,13.90
2022-10-27T03:52:36.257Z,13.91
2022-10-27T03:55:04.013Z,13.89
2022-10-27T03:57:31.682Z,13.87
2022-10-27T04:00:00.719Z,13.87
2022-10-27T04:02:28.410Z,13.84
2022-10-27T04:04:57.379Z,13.83
2022-10-27T04:07:25.013Z,13.82
2022-10-27T04:09:52.653Z,13.79
2022-10-27T04:12:20.349Z,13.78
2022-10-27T04:14:48.810Z,13.76
2022-10-27T04:17:17.912Z,13.76
2022-10-27T04:19:45.575Z,13.73
2022-10-27T04:22:13.256Z,13.70
2022-10-27T04:24:41.268Z,13.65
2022-10-27T04:27:09.334Z,13.66
2022-10-27T04:29:37.000Z,13.64
2022-10-27T04:32:04.619Z,13.65
2022-10-27T04:34:33.610Z,13.62
2022-10-27T04:37:01.256Z,13.59
2022-10-27T04:39:28.865Z,13.58
2022-10-27T04:41:57.346Z,13.55
2022-10-27T04:44:25.018Z,13.53
2022-10-27T04:46:52.632Z,13.53
2022-10-27T04:49:20.260Z,13.50
2022-10-27T04:51:49.321Z,13.49
2022-10-27T04:54:16.935Z,13.49
2022-10-27T04:56:44.571Z,13.48
2022-10-27T04:59:12.267Z,13.49
2022-10-27T05:01:40.419Z,13.47
2022-10-27T05:04:08.085Z,13.42
2022-10-27T05:06:36.827Z,13.41
2022-10-27T05:09:05.942Z,13.42
2022-10-27T05:11:33.667Z,13.37
2022-10-27T05:14:01.300Z,13.38
2022-10-27T05:16:28.989Z,13.34
2022-10-27T05:18:56.614Z,13.35
2022-10-27T05:21:24.287Z,13.33
2022-10-27T05:23:51.962Z,13.32
2022-10-27T05:26:21.060Z,13.34
2022-10-27T05:28:49.312Z,13.33
2022-10-27T05:31:16.928Z,13.32
2022-10-27T05:33:44.956Z,13.32
2022-10-27T05:36:12.608Z,13.33
2022-10-27T05:38:40.284Z,13.33
2022-10-27T05:41:07.925Z,13.30
2022-10-27T05:43:39.570Z,13.31
2022-10-27T05:46:08.560Z,13.29
2022-10-27T05:48:36.214Z,13.29
2022-10-27T05:51:03.886Z,13.26
2022-10-27T05:53:31.549Z,13.25
2022-10-27T05:55:59.207Z,13.23
2022-10-27T05:58:26.934Z,13.23
2022-10-27T06:00:59.433Z,13.23
2022-10-27T06:03:27.613Z,13.22
2022-10-27T06:05:55.852Z,13.21
2022-10-27T06:08:24.116Z,13.20
2022-10-27T06:10:51.824Z,13.19
2022-10-27T06:13:19.938Z,13.18
2022-10-27T06:15:47.599Z,13.18
2022-10-27T06:18:16.754Z,13.17
2022-10-27T06:20:44.847Z,13.18
2022-10-27T06:23:12.571Z,13.16
2022-10-27T06:25:40.231Z,13.13
2022-10-27T06:28:07.913Z,13.13
2022-10-27T06:30:35.777Z,13.15
2022-10-27T06:33:03.451Z,13.18
2022-10-27T06:35:32.477Z,13.20
2022-10-27T06:38:00.109Z,13.23
2022-10-27T06:40:27.817Z,13.28
2022-10-27T06:43:06.361Z,13.31
2022-10-27T06:45:34.937Z,13.35
2022-10-27T06:48:02.864Z,13.39
2022-10-27T06:50:32.105Z,13.41
2022-10-27T06:53:01.287Z,13.46
2022-10-27T06:55:28.983Z,13.50
2022-10-27T06:57:56.912Z,13.57
2022-10-27T07:00:25.357Z,13.62
2022-10-27T07:02:53.254Z,13.69
2022-10-27T07:05:23.860Z,13.75
2022-10-27T07:07:54.513Z,13.80
2022-10-27T07:10:22.806Z,13.87
2022-10-27T07:12:55.553Z,13.95
2022-10-27T07:15:24.274Z,14.03
2022-10-27T07:17:58.852Z,14.15
2022-10-27T07:20:27.587Z,14.28
2022-10-27T07:22:57.197Z,14.40
2022-10-27T07:25:24.925Z,14.54
2022-10-27T07:27:54.599Z,14.65
2022-10-27T07:30:24.675Z,14.78
2022-10-27T07:32:52.416Z,14.86
2022-10-27T07:35:20.401Z,14.92
2022-10-27T07:37:48.635Z,14.98
2022-10-27T07:40:20.071Z,15.04
2022-10-27T07:42:49.394Z,15.10
2022-10-27T07:45:19.185Z,15.16
2022-10-27T07:47:49.366Z,15.22
2022-10-27T07:50:18.363Z,15.29
2022-10-27T07:52:47.817Z,15.37
2022-10-27T07:55:17.166Z,15.45
2022-10-27T07:57:46.732Z,15.54
2022-10-27T08:00:16.480Z,15.62
2022-10-27T08:02:47.089Z,15.70
2022-10-27T08:05:18.546Z,15.78
2022-10-27T08:07:46.338Z,15.86
2022-10-27T08:10:14.103Z,15.95
2022-10-27T08:12:44.583Z,16.04
2022-10-27T08:15:13.950Z,16.13
2022-10-27T08:17:41.724Z,16.23
2022-10-27T08:20:11.100Z,16.31
2022-10-27T08:22:38.717Z,16.43
2022-10-27T08:25:09.905Z,16.55
2022-10-27T08:27:38.238Z,16.64
2022-10-27T08:30:06.414Z,16.73
2022-10-27T08:32:35.582Z,16.84
2022-10-27T08:35:03.251Z,16.90
2022-10-27T08:37:30.910Z,16.97
2022-10-27T08:39:58.569Z,17.06
2022-10-27T08:42:39.022Z,17.14
2022-10-27T08:45:10.802Z,17.22
2022-10-27T08:47:40.291Z,17.30
2022-10-27T08:50:15.571Z,17.38
2022-10-27T08:52:50.432Z,17.46
2022-10-27T08:55:23.680Z,17.53
2022-10-27T08:58:05.783Z,17.59
2022-10-27T09:00:51.064Z,17.66
2022-10-27T09:03:40.471Z,17.75
2022-10-27T09:06:17.688Z,17.85
2022-10-27T09:08:52.675Z,17.96
2022-10-27T09:11:30.561Z,18.06
2022-10-27T09:14:17.351Z,18.14
2022-10-27T09:16:51.502Z,18.21
2022-10-27T09:19:25.939Z,18.32
2022-10-27T09:21:54.228Z,18.44
2022-10-27T09:24:27.214Z,18.55
2022-10-27T09:26:58.848Z,18.63
2022-10-27T09:29:27.742Z,18.73
2022-10-27T09:31:59.805Z,18.78
2022-10-27T09:34:35.828Z,18.84
2022-10-27T09:37:03.606Z,18.89
2022-10-27T09:39:31.256Z,18.93
2022-10-27T09:41:58.906Z,19.05
2022-10-27T09:44:27.241Z,19.17
2022-10-27T09:46:56.632Z,19.22
2022-10-27T09:49:31.708Z,19.28
2022-10-27T09:52:03.023Z,19.34
2022-10-27T09:54:33.396Z,19.38
2022-10-27T09:57:09.849Z,19.42
2022-10-27T09:59:38.983Z,19.46
2022-10-27T10:02:23.340Z,19.52
2022-10-27T10:04:52.503Z,19.57
2022-10-27T10:07:33.398Z,19.61
2022-10-27T10:10:07.052Z,19.62
2022-10-27T10:12:34.699Z,19.65
2022-10-27T10:15:19.087Z,19.75
2022-10-27T10:17:54.110Z,19.81
2022-10-27T10:20:37.896Z,19.84
2022-10-27T10:23:19.628Z,19.89
2022-10-27T10:25:49.458Z,19.97
2022-10-27T10:28:21.847Z,20.04
2022-10-27T10:30:51.326Z,20.12
2022-10-27T10:33:20.098Z,20.20
2022-10-27T10:35:51.026Z,20.25
2022-10-27T10:38:34.501Z,20.31
2022-10-27T10:41:04.096Z,20.37
2022-10-27T10:43:32.198Z,20.42
2022-10-27T10:45:59.861Z,20.43
2022-10-27T10:48:42.164Z,20.44
2022-10-27T10:51:11.961Z,20.43
2022-10-27T10:53:42.595Z,20.45
2022-10-27T10:56:25.115Z,20.51
2022-10-27T10:58:57.886Z,20.56
2022-10-27T11:01:38.973Z,20.61
2022-10-27T11:04:07.226Z,20.64
2022-10-27T11:06:36.347Z,20.70
2022-10-27T11:09:05.429Z,20.70
2022-10-27T11:11:37.161Z,20.74
2022-10-27T11:14:09.426Z,20.78
2022-10-27T11:16:38.309Z,20.82
2022-10-27T11:19:09.078Z,20.86
2022-10-27T11:21:43.414Z,20.85
2022-10-27T11:24:18.013Z,20.87
2022-10-27T11:26:54.542Z,20.89
2022-10-27T11:29:28.398Z,20.91
2022-10-27T11:32:08.445Z,20.94
2022-10-27T11:34:42.052Z,20.96
2022-10-27T11:37:15.680Z,21.05
2022-10-27T11:39:51.663Z,21.14
2022-10-27T11:42:27.721Z,21.21
2022-10-27T11:45:06.352Z,21.30
2022-10-27T11:47:41.588Z,21.36
2022-10-27T11:50:13.952Z,21.42
2022-10-27T11:52:46.173Z,21.45
2022-10-27T11:55:15.663Z,21.50
2022-10-27T11:57:49.502Z,21.53
2022-10-27T12:00:22.233Z,21.53
2022-10-27T12:03:19.932Z,21.55
2022-10-27T12:05:53.461Z,21.55
2022-10-27T12:08:35.870Z,21.59
2022-10-27T12:11:11.667Z,21.62
2022-10-27T12:16:26.458Z,21.76
2022-10-27T12:18:59.093Z,21.82
2022-10-27T12:21:29.648Z,21.89
2022-10-27T12:24:04.951Z,21.94
2022-10-27T12:26:36.585Z,21.91
2022-10-27T12:29:08.822Z,21.87
2022-10-27T12:31:39.478Z,21.86
2022-10-27T12:34:11.047Z,21.81
2022-10-27T12:36:46.599Z,21.81
2022-10-27T12:39:24.644Z,21.85
2022-10-27T12:42:02.092Z,21.90
2022-10-27T12:44:42.174Z,21.92
2022-10-27T12:47:25.344Z,21.93
2022-10-27T12:50:06.261Z,21.94
2022-10-27T12:52:42.016Z,21.95
2022-10-27T12:55:24.297Z,21.94
2022-10-27T12:58:01.452Z,21.95
2022-10-27T13:00:33.483Z,21.98
2022-10-27T13:03:33.553Z,21.99
2022-10-27T13:06:26.303Z,21.96
2022-10-27T13:09:25.705Z,21.92
2022-10-27T13:12:12.128Z,21.91
2022-10-27T13:15:20.162Z,21.90
2022-10-27T13:17:56.582Z,21.91
2022-10-27T13:20:45.488Z,21.94
2022-10-27T13:23:22.486Z,21.96
2022-10-27T13:25:57.846Z,21.99
2022-10-27T13:28:33.791Z,22.01
2022-10-27T13:31:06.099Z,22.03
2022-10-27T13:33:35.765Z,22.04
2022-10-27T13:36:22.011Z,22.09
2022-10-27T13:38:50.490Z,22.10
2022-10-27T13:41:49.936Z,22.13
2022-10-27T13:44:29.384Z,22.15
2022-10-27T13:47:13.087Z,22.19
2022-10-27T13:49:58.471Z,22.16
2022-10-27T13:52:28.255Z,22.10
2022-10-27T13:54:58.647Z,22.05
2022-10-27T13:57:52.349Z,22.01
2022-10-27T14:00:24.671Z,21.94
2022-10-27T14:03:16.327Z,21.91
2022-10-27T14:05:46.325Z,21.84
2022-10-27T14:08:19.594Z,21.82
2022-10-27T14:10:47.685Z,21.78
2022-10-27T14:13:21.883Z,21.76
2022-10-27T14:15:59.205Z,21.76
2022-10-27T14:18:30.811Z,21.75
2022-10-27T14:21:03.666Z,21.75
2022-10-27T14:23:32.163Z,21.75
2022-10-27T14:26:24.712Z,21.75
2022-10-27T14:28:52.204Z,21.74
2022-10-27T14:31:23.917Z,21.74
2022-10-27T14:33:52.514Z,21.75
2022-10-27T14:36:22.680Z,21.74
2022-10-27T14:38:52.126Z,21.73
2022-10-27T14:41:21.148Z,21.70
2022-10-27T14:43:52.928Z,21.68
2022-10-27T14:46:23.720Z,21.66
2022-10-27T14:48:58.137Z,21.62
2022-10-27T14:51:26.749Z,21.59
2022-10-27T14:53:56.923Z,21.55
2022-10-27T14:56:26.718Z,21.55
2022-10-27T14:58:58.089Z,21.51
2022-10-27T15:01:35.496Z,21.49
2022-10-27T15:04:15.821Z,21.44
2022-10-27T15:06:46.209Z,21.41
2022-10-27T15:09:25.012Z,21.38
2022-10-27T15:11:52.765Z,21.35
2022-10-27T15:14:21.872Z,21.32
2022-10-27T15:16:49.684Z,21.32
2022-10-27T15:19:19.721Z,21.32
2022-10-27T15:21:48.842Z,21.29
2022-10-27T15:24:20.117Z,21.29
2022-10-27T15:26:48.866Z,21.26
2022-10-27T15:29:18.605Z,21.23
2022-10-27T15:31:47.776Z,21.23
2022-10-27T15:34:33.981Z,21.21
2022-10-27T15:37:15.361Z,21.21
2022-10-27T15:39:43.022Z,21.20
2022-10-27T15:42:19.508Z,21.19
2022-10-27T15:44:47.809Z,21.20
2022-10-27T15:47:40.872Z,21.17
2022-10-27T15:50:28.408Z,21.15
2022-10-27T15:53:15.927Z,21.12
2022-10-27T15:55:49.099Z,21.10
2022-10-27T15:58:33.383Z,21.09
2022-10-27T16:01:13.298Z,21.05
2022-10-27T16:03:44.658Z,21.02
2022-10-27T16:06:29.712Z,21.00
2022-10-27T16:08:59.190Z,20.99
2022-10-27T16:11:32.711Z,20.92
2022-10-27T16:14:04.871Z,20.89
2022-10-27T16:16:36.472Z,20.88
2022-10-27T16:19:06.946Z,20.86
2022-10-27T16:21:35.710Z,20.84
2022-10-27T16:24:13.758Z,20.83
2022-10-27T16:26:41.443Z,20.81
2022-10-27T16:29:15.597Z,20.80
2022-10-27T16:31:43.504Z,20.82
2022-10-27T16:34:20.338Z,20.83
2022-10-27T16:36:50.916Z,20.83
2022-10-27T16:39:19.257Z,20.81
2022-10-27T16:41:47.960Z,20.81
2022-10-27T16:44:16.138Z,20.80
2022-10-27T16:46:43.770Z,20.79
2022-10-27T16:49:11.407Z,20.73
2022-10-27T16:51:41.548Z,20.70
2022-10-27T16:54:09.184Z,20.69
2022-10-27T16:56:36.842Z,20.68
2022-10-27T16:59:05.487Z,20.64
2022-10-27T17:01:33.213Z,20.63
2022-10-27T17:04:01.825Z,20.62
2022-10-27T17:06:32.426Z,20.62
2022-10-27T17:09:05.829Z,20.60
2022-10-27T17:11:33.439Z,20.58
2022-10-27T17:14:01.062Z,20.57
2022-10-27T17:16:28.835Z,20.56
2022-10-27T17:18:56.528Z,20.57
2022-10-27T17:21:24.202Z,20.59
2022-10-27T17:23:51.945Z,20.57
2022-10-27T17:26:21.403Z,20.55
2022-10-27T17:28:49.972Z,20.55
2022-10-27T17:31:22.553Z,20.55
2022-10-27T17:33:53.042Z,20.56
2022-10-27T17:36:20.794Z,20.57
2022-10-27T17:38:48.427Z,20.56
2022-10-27T17:41:16.396Z,20.56
2022-10-27T17:43:45.458Z,20.54
2022-10-27T17:46:14.867Z,20.54
2022-10-27T17:48:44.216Z,20.54
2022-10-27T17:51:13.928Z,20.53
2022-10-27T17:53:42.971Z,20.51
2022-10-27T17:56:13.517Z,20.48
2022-10-27T17:58:42.857Z,20.47
2022-10-27T18:01:15.228Z,20.44
2022-10-27T18:03:44.402Z,20.41
2022-10-27T18:06:15.939Z,20.36
2022-10-27T18:08:43.935Z,20.31
2022-10-27T18:11:13.217Z,20.25
2022-10-27T18:13:43.380Z,20.21
2022-10-27T18:16:21.975Z,20.18
2022-10-27T18:18:49.821Z,20.16
2022-10-27T18:21:17.922Z,20.13
2022-10-27T18:23:49.513Z,20.11
2022-10-27T18:26:17.733Z,20.07
2022-10-27T18:28:46.251Z,20.02
2022-10-27T18:31:16.647Z,20.00
2022-10-27T18:33:45.047Z,19.97
2022-10-27T18:36:14.897Z,19.94
2022-10-27T18:38:43.048Z,19.90
2022-10-27T18:41:13.622Z,19.88
2022-10-27T18:43:41.283Z,19.82
2022-10-27T18:46:12.375Z,19.80
2022-10-27T18:48:41.547Z,19.78
2022-10-27T18:51:14.127Z,19.75
2022-10-27T18:53:43.073Z,19.70
2022-10-27T18:56:12.651Z,19.68
2022-10-27T18:58:40.655Z,19.64
2022-10-27T19:01:10.157Z,19.62
2022-10-27T19:03:38.039Z,19.59
2022-10-27T19:06:09.617Z,19.56
2022-10-27T19:08:37.763Z,19.53
2022-10-27T19:11:06.923Z,19.49
2022-10-27T19:13:35.519Z,19.47
2022-10-27T19:16:03.724Z,19.45
2022-10-27T19:18:32.090Z,19.43
2022-10-27T19:21:02.731Z,19.41
2022-10-27T19:23:33.000Z,19.38
2022-10-27T19:26:06.201Z,19.35
2022-10-27T19:28:34.194Z,19.32
2022-10-27T19:31:02.145Z,19.28
2022-10-27T19:33:29.905Z,19.26
2022-10-27T19:36:03.785Z,19.24
2022-10-27T19:38:32.911Z,19.21
2022-10-27T19:41:00.572Z,19.19
2022-10-27T19:43:28.334Z,19.21
2022-10-27T19:45:56.025Z,19.20
2022-10-27T19:48:23.670Z,19.18
2022-10-27T19:50:51.432Z,19.17
2022-10-27T19:53:19.063Z,19.15
2022-10-27T19:55:48.091Z,19.12
2022-10-27T19:58:15.758Z,19.11
2022-10-27T20:00:43.415Z,19.11
2022-10-27T20:03:11.059Z,19.09
2022-10-27T20:05:38.727Z,19.08
2022-10-27T20:08:06.651Z,19.09
2022-10-27T20:10:34.394Z,19.09
2022-10-27T20:13:03.416Z,19.09
2022-10-27T20:15:31.112Z,19.09
2022-10-27T20:17:58.807Z,19.10
2022-10-27T20:20:26.543Z,19.09
2022-10-27T20:22:54.193Z,19.10
2022-10-27T20:25:21.826Z,19.10
2022-10-27T20:27:49.697Z,19.12
2022-10-27T20:30:18.933Z,19.12
2022-10-27T20:32:46.559Z,19.13
2022-10-27T20:35:14.259Z,19.13
2022-10-27T20:37:41.976Z,19.13
2022-10-27T20:40:10.668Z,19.15
2022-10-27T20:42:38.445Z,19.14
2022-10-27T20:45:07.069Z,19.16
2022-10-27T20:47:36.057Z,19.17
2022-10-27T20:50:03.772Z,19.18
2022-10-27T20:52:31.967Z,19.18
2022-10-27T20:54:59.707Z,19.18
2022-10-27T20:57:27.353Z,19.18
2022-10-27T20:59:55.036Z,19.21
2022-10-27T21:02:22.872Z,19.21
2022-10-27T21:04:53.063Z,19.22
2022-10-27T21:07:23.576Z,19.21
2022-10-27T21:09:51.223Z,19.22
2022-10-27T21:12:18.882Z,19.22
2022-10-27T21:14:46.544Z,19.22
2022-10-27T21:17:14.217Z,19.23
2022-10-27T21:19:47.400Z,19.23
2022-10-27T21:22:16.414Z,19.25
2022-10-27T21:24:44.115Z,19.26
2022-10-27T21:27:11.790Z,19.29
2022-10-27T21:29:39.418Z,19.28
2022-10-27T21:32:07.478Z,19.28
2022-10-27T21:34:35.395Z,19.29
2022-10-27T21:37:03.881Z,19.30
2022-10-27T21:39:32.968Z,19.30
2022-10-27T21:42:00.634Z,19.32
2022-10-27T21:44:28.287Z,19.35
2022-10-27T21:46:56.007Z,19.36
2022-10-27T21:49:23.685Z,19.38
2022-10-27T21:51:52.409Z,19.40
2022-10-27T21:54:20.159Z,19.42
2022-10-27T21:56:49.548Z,19.45
2022-10-27T21:59:17.241Z,19.46
2022-10-27T22:01:44.993Z,19.47
2022-10-27T22:04:12.736Z,19.48
2022-10-27T22:06:40.481Z,19.47
2022-10-27T22:09:08.339Z,19.48
2022-10-27T22:11:37.966Z,19.49
2022-10-27T22:14:07.038Z,19.49
2022-10-27T22:16:35.732Z,19.47
2022-10-27T22:19:05.049Z,19.48
2022-10-27T22:21:35.224Z,19.48
2022-10-27T22:24:03.196Z,19.49
2022-10-27T22:26:31.353Z,19.49
2022-10-27T22:28:59.201Z,19.50
2022-10-27T22:31:31.200Z,19.49
2022-10-27T22:33:59.700Z,19.49
2022-10-27T22:36:27.619Z,19.47
2022-10-27T22:38:56.870Z,19.44
2022-10-27T22:41:25.048Z,19.41
2022-10-27T22:43:52.891Z,19.40
2022-10-27T22:46:23.057Z,19.41
2022-10-27T22:48:52.265Z,19.42
2022-10-27T22:51:21.920Z,19.43
2022-10-27T22:53:50.606Z,19.44
2022-10-27T22:56:20.082Z,19.46
2022-10-27T22:58:49.147Z,19.47
2022-10-27T23:01:19.156Z,19.44
2022-10-27T23:03:51.131Z,19.45
2022-10-27T23:06:20.522Z,19.44
2022-10-27T23:08:48.868Z,19.45
2022-10-27T23:11:16.548Z,19.44
2022-10-27T23:13:44.245Z,19.45
2022-10-27T23:16:11.984Z,19.44
2022-10-27T23:18:43.303Z,19.47
2022-10-27T23:21:14.387Z,19.47
2022-10-27T23:23:44.316Z,19.48
2022-10-27T23:26:19.607Z,19.49
2022-10-27T23:28:50.711Z,19.48
2022-10-27T23:31:19.115Z,19.47
2022-10-27T23:33:47.038Z,19.47
2022-10-27T23:36:14.702Z,19.45
2022-10-27T23:38:43.748Z,19.42
2022-10-27T23:41:11.609Z,19.41
2022-10-27T23:43:39.732Z,19.42
2022-10-27T23:46:08.967Z,19.39
2022-10-27T23:48:37.828Z,19.40
2022-10-27T23:51:06.327Z,19.39
2022-10-27T23:53:34.215Z,19.38
2022-10-27T23:56:05.090Z,19.38
2022-10-27T23:58:34.618Z,19.38
